EST,Max TemperatureF,Mean TemperatureF,Min TemperatureF,Max Dew PointF,MeanDew PointF,Min DewpointF,Max Humidity, Mean Humidity, Min Humidity, Max Sea Level PressureIn, Mean Sea Level PressureIn, Min Sea Level PressureIn, Max VisibilityMiles, Mean VisibilityMiles, Min VisibilityMiles, Max Wind SpeedMPH, Mean Wind SpeedMPH, Max Gust SpeedMPH,PrecipitationIn, CloudCover, Events, WindDirDegrees
2013-2-1,43,32,20,30,17,7,78,57,36,30.43,30.27,30.00,10,8,2,31,9,39,0.01,4,Rain-Snow,271
2013-2-2,39,30,21,32,22,13,85,73,60,30.37,30.23,30.10,10,7,0,18,7,23,0.01,6,Snow,230
2013-2-3,46,37,28,36,28,20,89,67,45,30.18,30.06,29.99,10,8,1,22,9,29,0.07,7,Rain-Snow,239
2013-2-4,48,36,23,28,24,20,88,65,41,30.15,30.06,29.96,10,10,7,13,4,15,0.00,3,,221
2013-2-5,58,50,42,40,34,27,76,60,43,30.03,29.97,29.93,10,10,10,17,9,22,T,5,,228
2013-2-6,59,45,31,41,33,27,100,66,32,30.20,30.14,30.05,10,5,0,12,3,15,0.00,2,Fog,309
2013-2-7,52,46,39,43,35,29,86,65,44,30.14,30.05,29.94,10,10,10,10,3,13,0.01,6,Rain,32
2013-2-8,55,47,38,46,41,28,96,73,50,30.28,30.03,29.91,10,6,1,18,9,24,0.15,7,Rain,275
2013-2-9,54,41,28,27,23,16,78,50,22,30.35,30.29,30.23,10,10,9,16,9,20,0.00,1,,31
2013-2-10,61,49,37,45,34,23,93,58,23,30.25,30.13,29.98,10,9,2,20,5,26,0.27,5,Rain,30
2013-2-11,57,50,43,54,44,27,93,70,46,30.12,30.04,29.98,10,8,2,20,9,25,0.01,6,Rain,237
2013-2-12,53,44,35,37,29,25,82,57,32,30.17,30.06,29.87,10,10,7,16,5,20,0.03,4,Rain,42
2013-2-13,48,43,37,45,40,32,96,83,70,29.99,29.77,29.70,10,6,1,25,7,32,0.24,8,Rain,257
2013-2-14,52,44,36,33,31,30,89,70,50,30.09,30.03,30.00,10,10,10,14,6,17,0.00,4,,207
2013-2-15,56,45,34,39,34,30,92,70,47,30.11,30.06,30.01,10,10,6,20,6,25,0.08,5,Rain,299
2013-2-16,39,32,24,31,20,10,89,62,35,30.15,30.06,30.01,10,9,0,24,8,32,T,5,Snow,316
2013-2-17,42,31,19,15,10,7,68,45,22,30.29,30.23,30.16,10,10,10,16,5,25,0.00,1,,230
2013-2-18,60,41,22,25,21,13,74,50,26,30.32,30.19,29.99,10,10,10,28,9,37,0.00,1,,196
2013-2-19,53,44,35,43,31,13,89,56,22,30.21,30.01,29.91,10,8,2,30,14,38,0.25,6,Rain,238
2013-2-20,41,33,24,17,14,12,68,49,30,30.26,30.22,30.18,10,10,10,12,5,15,0.00,0,,251
2013-2-21,52,39,25,37,20,13,85,53,21,30.25,30.15,29.99,10,9,4,15,7,20,0.48,2,Rain,31
2013-2-22,55,47,38,45,41,36,96,81,66,30.08,30.02,29.99,10,6,2,16,5,20,0.14,8,Rain,311
2013-2-23,54,48,41,47,45,37,100,89,77,30.03,29.93,29.84,10,5,2,12,3,15,0.11,6,Rain,238
2013-2-24,56,44,31,35,27,22,89,58,26,30.08,30.03,29.93,10,10,7,10,3,14,0.00,0,,37
2013-2-25,57,46,34,33,27,23,64,50,35,30.06,29.96,29.79,10,10,10,14,7,15,0.00,3,,41
2013-2-26,62,51,40,48,41,33,93,74,54,29.75,29.59,29.44,10,9,4,35,14,43,0.53,7,Rain,287
2013-2-27,49,44,39,36,33,30,85,71,56,29.87,29.81,29.70,10,10,7,24,14,26,0.02,8,Rain,237
2013-2-28,40,37,33,31,27,22,82,67,52,30.01,29.92,29.83,10,8,1,22,11,26,0.01,8,Rain-Snow,264